sensor_id;sensor_type;location;lat;lon;timestamp;pressure;altitude;pressure_sealevel;temperature;humidity
62051;BME280;48008;51.204;6.766;2023-03-25T00:02:19;99933.53;;;8.74;91.03
62051;BME280;48008;51.204;6.766;2023-03-25T00:04:50;99924.63;;;8.83;89.95
62051;BME280;48008;51.204;6.766;2023-03-25T00:07:18;99928.28;;;8.82;91.55
62051;BME280;48008;51.204;6.766;2023-03-25T00:09:45;99923.00;;;8.82;89.96
62051;BME280;48008;51.204;6.766;2023-03-25T00:12:14;99920.34;;;8.82;89.66
62051;BME280;48008;51.204;6.766;2023-03-25T00:14:43;99919.03;;;8.87;89.27
62051;BME280;48008;51.204;6.766;2023-03-25T00:17:21;99921.34;;;8.98;89.30
62051;BME280;48008;51.204;6.766;2023-03-25T00:19:48;99916.88;;;8.90;88.90
62051;BME280;48008;51.204;6.766;2023-03-25T00:22:17;99916.03;;;8.81;89.89
62051;BME280;48008;51.204;6.766;2023-03-25T00:24:44;99913.06;;;8.93;88.35
62051;BME280;48008;51.204;6.766;2023-03-25T00:27:11;99915.38;;;8.79;90.26
62051;BME280;48008;51.204;6.766;2023-03-25T00:29:40;99909.59;;;8.84;88.92
62051;BME280;48008;51.204;6.766;2023-03-25T00:32:07;99913.06;;;8.93;88.47
62051;BME280;48008;51.204;6.766;2023-03-25T00:34:34;99912.72;;;8.79;88.55
62051;BME280;48008;51.204;6.766;2023-03-25T00:37:08;99921.31;;;8.81;88.37
62051;BME280;48008;51.204;6.766;2023-03-25T00:39:35;99911.75;;;8.80;89.12
62051;BME280;48008;51.204;6.766;2023-03-25T00:42:03;99907.13;;;8.82;88.89
62051;BME280;48008;51.204;6.766;2023-03-25T00:44:31;99913.91;;;8.85;89.38
62051;BME280;48008;51.204;6.766;2023-03-25T00:46:58;99904.31;;;8.92;87.69
62051;BME280;48008;51.204;6.766;2023-03-25T00:49:25;99901.19;;;8.97;87.19
62051;BME280;48008;51.204;6.766;2023-03-25T00:51:54;99906.16;;;8.92;86.42
62051;BME280;48008;51.204;6.766;2023-03-25T00:54:22;99908.44;;;8.95;86.99
62051;BME280;48008;51.204;6.766;2023-03-25T00:56:51;99911.28;;;9.01;85.77
62051;BME280;48008;51.204;6.766;2023-03-25T00:59:18;99906.47;;;8.89;88.43
62051;BME280;48008;51.204;6.766;2023-03-25T01:01:45;99904.16;;;9.02;86.06
62051;BME280;48008;51.204;6.766;2023-03-25T01:04:13;99908.28;;;8.88;85.76
62051;BME280;48008;51.204;6.766;2023-03-25T01:06:42;99904.84;;;9.04;84.91
62051;BME280;48008;51.204;6.766;2023-03-25T01:09:12;99902.50;;;9.09;84.69
62051;BME280;48008;51.204;6.766;2023-03-25T01:11:42;99907.94;;;9.08;83.81
62051;BME280;48008;51.204;6.766;2023-03-25T01:14:13;99907.81;;;9.01;84.18
62051;BME280;48008;51.204;6.766;2023-03-25T01:16:42;99905.00;;;9.02;83.97
62051;BME280;48008;51.204;6.766;2023-03-25T01:19:09;99908.16;;;9.06;83.21
62051;BME280;48008;51.204;6.766;2023-03-25T01:21:36;99902.19;;;8.96;82.98
62051;BME280;48008;51.204;6.766;2023-03-25T01:24:04;99903.50;;;9.08;83.01
62051;BME280;48008;51.204;6.766;2023-03-25T01:26:32;99905.97;;;9.01;82.47
62051;BME280;48008;51.204;6.766;2023-03-25T01:28:59;99902.34;;;9.11;82.06
62051;BME280;48008;51.204;6.766;2023-03-25T01:31:26;99912.44;;;9.15;81.57
62051;BME280;48008;51.204;6.766;2023-03-25T01:33:56;99907.66;;;9.02;81.50
62051;BME280;48008;51.204;6.766;2023-03-25T01:36:25;99898.03;;;9.01;80.77
62051;BME280;48008;51.204;6.766;2023-03-25T01:38:56;99901.34;;;8.95;82.49
62051;BME280;48008;51.204;6.766;2023-03-25T01:41:25;99900.50;;;8.95;82.22
62051;BME280;48008;51.204;6.766;2023-03-25T01:46:59;99895.06;;;9.05;82.07
62051;BME280;48008;51.204;6.766;2023-03-25T01:49:33;99893.91;;;9.07;81.68
62051;BME280;48008;51.204;6.766;2023-03-25T01:52:08;99896.22;;;9.02;81.08
62051;BME280;48008;51.204;6.766;2023-03-25T01:54:38;99896.06;;;8.95;81.81
62051;BME280;48008;51.204;6.766;2023-03-25T01:57:07;99888.09;;;8.87;82.50
62051;BME280;48008;51.204;6.766;2023-03-25T01:59:35;99893.41;;;9.03;81.84
62051;BME280;48008;51.204;6.766;2023-03-25T02:02:05;99884.16;;;8.99;82.02
62051;BME280;48008;51.204;6.766;2023-03-25T02:04:39;99888.94;;;8.96;82.41
62051;BME280;48008;51.204;6.766;2023-03-25T02:07:11;99884.16;;;8.99;82.57
62051;BME280;48008;51.204;6.766;2023-03-25T02:09:38;99888.63;;;8.99;83.11
62051;BME280;48008;51.204;6.766;2023-03-25T02:12:06;99887.78;;;9.07;81.52
62051;BME280;48008;51.204;6.766;2023-03-25T02:14:34;99882.81;;;9.03;81.63
62051;BME280;48008;51.204;6.766;2023-03-25T02:20:45;99889.28;;;9.01;81.15
62051;BME280;48008;51.204;6.766;2023-03-25T02:23:39;99894.91;;;9.06;81.61
62051;BME280;48008;51.204;6.766;2023-03-25T02:26:30;99893.41;;;8.95;81.42
62051;BME280;48008;51.204;6.766;2023-03-25T02:29:19;99902.84;;;8.90;81.52
62051;BME280;48008;51.204;6.766;2023-03-25T02:32:08;99895.22;;;8.87;83.07
62051;BME280;48008;51.204;6.766;2023-03-25T02:38:15;99894.06;;;8.81;81.28
62051;BME280;48008;51.204;6.766;2023-03-25T02:40:53;99890.59;;;8.80;82.68
62051;BME280;48008;51.204;6.766;2023-03-25T02:43:30;99900.00;;;8.91;81.83
62051;BME280;48008;51.204;6.766;2023-03-25T02:46:00;99897.38;;;8.83;81.30
62051;BME280;48008;51.204;6.766;2023-03-25T02:48:34;99900.00;;;8.83;81.55
62051;BME280;48008;51.204;6.766;2023-03-25T02:51:08;99891.91;;;8.76;82.19
62051;BME280;48008;51.204;6.766;2023-03-25T02:53:39;99899.34;;;8.81;82.44
62051;BME280;48008;51.204;6.766;2023-03-25T02:56:11;99890.91;;;8.77;82.68
62051;BME280;48008;51.204;6.766;2023-03-25T02:58:43;99899.19;;;8.82;81.90
62051;BME280;48008;51.204;6.766;2023-03-25T03:01:12;99891.53;;;8.71;83.25
62051;BME280;48008;51.204;6.766;2023-03-25T03:03:40;99888.91;;;8.71;82.80
62051;BME280;48008;51.204;6.766;2023-03-25T03:06:15;99890.38;;;8.65;83.92
62051;BME280;48008;51.204;6.766;2023-03-25T03:11:23;99882.81;;;8.79;83.31
62051;BME280;48008;51.204;6.766;2023-03-25T03:17:12;99873.84;;;8.63;84.83
62051;BME280;48008;51.204;6.766;2023-03-25T03:20:08;99874.50;;;8.65;84.61
62051;BME280;48008;51.204;6.766;2023-03-25T03:22:47;99876.50;;;8.55;84.81
62051;BME280;48008;51.204;6.766;2023-03-25T03:25:31;99868.25;;;8.67;84.23
62051;BME280;48008;51.204;6.766;2023-03-25T03:28:05;99872.53;;;8.68;84.27
62051;BME280;48008;51.204;6.766;2023-03-25T03:30:47;99881.31;;;8.76;85.26
62051;BME280;48008;51.204;6.766;2023-03-25T03:33:19;99882.16;;;8.77;85.01
62051;BME280;48008;51.204;6.766;2023-03-25T03:35:55;99878.81;;;8.75;84.67
62051;BME280;48008;51.204;6.766;2023-03-25T03:38:32;99873.38;;;8.68;84.25
62051;BME280;48008;51.204;6.766;2023-03-25T03:41:05;99874.22;;;8.85;84.01
62051;BME280;48008;51.204;6.766;2023-03-25T03:43:39;99877.84;;;8.84;82.77
62051;BME280;48008;51.204;6.766;2023-03-25T03:46:17;99879.34;;;8.78;82.41
62051;BME280;48008;51.204;6.766;2023-03-25T03:48:51;99876.03;;;8.68;83.42
62051;BME280;48008;51.204;6.766;2023-03-25T03:51:24;99881.63;;;8.65;83.92
62051;BME280;48008;51.204;6.766;2023-03-25T03:53:59;99886.56;;;8.60;84.44
62051;BME280;48008;51.204;6.766;2023-03-25T03:56:31;99887.41;;;8.69;84.46
62051;BME280;48008;51.204;6.766;2023-03-25T03:59:11;99881.28;;;8.52;85.61
62051;BME280;48008;51.204;6.766;2023-03-25T04:01:43;99884.09;;;8.50;86.12
62051;BME280;48008;51.204;6.766;2023-03-25T04:04:14;99881.44;;;8.50;86.19
62051;BME280;48008;51.204;6.766;2023-03-25T04:06:48;99880.31;;;8.61;85.44
62051;BME280;48008;51.204;6.766;2023-03-25T04:09:35;99874.47;;;8.49;85.88
62051;BME280;48008;51.204;6.766;2023-03-25T04:12:14;99879.47;;;8.52;85.47
62051;BME280;48008;51.204;6.766;2023-03-25T04:14:43;99879.00;;;8.57;84.54
62051;BME280;48008;51.204;6.766;2023-03-25T04:17:11;99866.91;;;8.54;84.56
62051;BME280;48008;51.204;6.766;2023-03-25T04:19:38;99871.88;;;8.57;83.98
62051;BME280;48008;51.204;6.766;2023-03-25T04:22:05;99877.81;;;8.59;83.90
62051;BME280;48008;51.204;6.766;2023-03-25T04:24:32;99888.09;;;8.62;83.29
62051;BME280;48008;51.204;6.766;2023-03-25T04:27:00;99885.91;;;8.50;84.19
62051;BME280;48008;51.204;6.766;2023-03-25T04:29:30;99884.44;;;8.55;82.73
62051;BME280;48008;51.204;6.766;2023-03-25T04:31:59;99877.47;;;8.54;82.64
62051;BME280;48008;51.204;6.766;2023-03-25T04:34:27;99881.28;;;8.60;82.18
62051;BME280;48008;51.204;6.766;2023-03-25T04:36:54;99882.78;;;8.62;81.84
62051;BME280;48008;51.204;6.766;2023-03-25T04:39:22;99880.47;;;8.68;81.54
62051;BME280;48008;51.204;6.766;2023-03-25T04:41:49;99885.28;;;8.72;80.09
62051;BME280;48008;51.204;6.766;2023-03-25T04:44:16;99888.13;;;8.79;80.15
62051;BME280;48008;51.204;6.766;2023-03-25T04:46:43;99881.00;;;8.79;79.87
62051;BME280;48008;51.204;6.766;2023-03-25T04:49:17;99881.66;;;8.81;79.18
62051;BME280;48008;51.204;6.766;2023-03-25T04:51:44;99890.41;;;8.74;79.33
62051;BME280;48008;51.204;6.766;2023-03-25T04:54:11;99884.47;;;8.80;78.54
62051;BME280;48008;51.204;6.766;2023-03-25T04:56:38;99883.47;;;8.73;78.58
62051;BME280;48008;51.204;6.766;2023-03-25T04:59:05;99877.69;;;8.86;78.70
62051;BME280;48008;51.204;6.766;2023-03-25T05:01:33;99878.81;;;8.75;78.93
62051;BME280;48008;51.204;6.766;2023-03-25T05:04:04;99871.75;;;8.75;79.94
62051;BME280;48008;51.204;6.766;2023-03-25T05:06:33;99873.22;;;8.70;81.35
62051;BME280;48008;51.204;6.766;2023-03-25T05:09:01;99879.97;;;8.56;83.64
62051;BME280;48008;51.204;6.766;2023-03-25T05:11:31;99874.00;;;8.62;85.41
62051;BME280;48008;51.204;6.766;2023-03-25T05:13:59;99891.84;;;8.60;84.51
62051;BME280;48008;51.204;6.766;2023-03-25T05:16:26;99881.78;;;8.63;86.39
62051;BME280;48008;51.204;6.766;2023-03-25T05:18:53;99875.00;;;8.53;85.18
62051;BME280;48008;51.204;6.766;2023-03-25T05:21:20;99890.19;;;8.51;84.09
62051;BME280;48008;51.204;6.766;2023-03-25T05:23:48;99899.13;;;8.58;84.20
62051;BME280;48008;51.204;6.766;2023-03-25T05:26:14;99893.53;;;8.61;85.42
62051;BME280;48008;51.204;6.766;2023-03-25T05:28:41;99893.38;;;8.62;86.14
62051;BME280;48008;51.204;6.766;2023-03-25T05:31:08;99895.81;;;8.56;86.86
62051;BME280;48008;51.204;6.766;2023-03-25T05:33:37;99892.00;;;8.50;86.47
62051;BME280;48008;51.204;6.766;2023-03-25T05:36:12;99893.66;;;8.51;84.51
62051;BME280;48008;51.204;6.766;2023-03-25T05:38:39;99893.50;;;8.44;86.56
62051;BME280;48008;51.204;6.766;2023-03-25T05:41:09;99898.78;;;8.44;85.10
62051;BME280;48008;51.204;6.766;2023-03-25T05:43:37;99897.34;;;8.67;84.42
62051;BME280;48008;51.204;6.766;2023-03-25T05:46:04;99891.34;;;8.48;84.92
62051;BME280;48008;51.204;6.766;2023-03-25T05:48:31;99894.00;;;8.56;83.33
62051;BME280;48008;51.204;6.766;2023-03-25T05:51:02;99900.44;;;8.62;84.63
62051;BME280;48008;51.204;6.766;2023-03-25T05:53:32;99892.22;;;8.57;83.79
62051;BME280;48008;51.204;6.766;2023-03-25T05:55:58;99889.72;;;8.63;84.20
62051;BME280;48008;51.204;6.766;2023-03-25T05:58:25;99897.50;;;8.65;83.08
62051;BME280;48008;51.204;6.766;2023-03-25T06:00:52;99890.53;;;8.56;83.10
62051;BME280;48008;51.204;6.766;2023-03-25T06:03:20;99904.25;;;8.68;82.51
62051;BME280;48008;51.204;6.766;2023-03-25T06:05:46;99899.66;;;8.70;83.43
62051;BME280;48008;51.204;6.766;2023-03-25T06:08:13;99898.00;;;8.69;83.29
62051;BME280;48008;51.204;6.766;2023-03-25T06:10:42;99904.44;;;8.74;83.31
62051;BME280;48008;51.204;6.766;2023-03-25T06:13:11;99908.06;;;8.65;83.58
62051;BME280;48008;51.204;6.766;2023-03-25T06:15:38;99902.78;;;8.57;84.77
62051;BME280;48008;51.204;6.766;2023-03-25T06:18:07;99902.91;;;8.47;87.16
62051;BME280;48008;51.204;6.766;2023-03-25T06:20:35;99898.13;;;8.51;85.27
62051;BME280;48008;51.204;6.766;2023-03-25T06:23:02;99904.34;;;8.41;85.87
62051;BME280;48008;51.204;6.766;2023-03-25T06:25:28;99892.63;;;8.44;86.61
62051;BME280;48008;51.204;6.766;2023-03-25T06:27:58;99900.31;;;8.29;88.31
62051;BME280;48008;51.204;6.766;2023-03-25T06:30:28;99902.81;;;8.31;89.35
62051;BME280;48008;51.204;6.766;2023-03-25T06:32:55;99901.44;;;8.18;91.06
62051;BME280;48008;51.204;6.766;2023-03-25T06:35:25;99906.72;;;8.18;93.02
62051;BME280;48008;51.204;6.766;2023-03-25T06:37:52;99912.00;;;8.10;93.77
62051;BME280;48008;51.204;6.766;2023-03-25T06:40:27;99912.34;;;8.15;95.07
62051;BME280;48008;51.204;6.766;2023-03-25T06:42:55;99905.38;;;8.06;96.02
62051;BME280;48008;51.204;6.766;2023-03-25T06:45:42;99912.84;;;8.19;94.57
62051;BME280;48008;51.204;6.766;2023-03-25T06:48:17;99915.66;;;8.17;94.04
62051;BME280;48008;51.204;6.766;2023-03-25T06:50:43;99930.31;;;8.12;95.52
62051;BME280;48008;51.204;6.766;2023-03-25T06:53:11;99921.38;;;8.04;95.69
62051;BME280;48008;51.204;6.766;2023-03-25T06:55:38;99923.97;;;7.96;95.89
62051;BME280;48008;51.204;6.766;2023-03-25T06:58:04;99912.50;;;8.14;96.03
62051;BME280;48008;51.204;6.766;2023-03-25T07:00:31;99910.72;;;8.22;94.46
62051;BME280;48008;51.204;6.766;2023-03-25T07:02:58;99906.56;;;8.20;93.90
62051;BME280;48008;51.204;6.766;2023-03-25T07:05:25;99912.66;;;8.12;94.96
62051;BME280;48008;51.204;6.766;2023-03-25T07:07:52;99919.97;;;8.26;95.57
62051;BME280;48008;51.204;6.766;2023-03-25T07:10:19;99918.66;;;8.22;93.08
62051;BME280;48008;51.204;6.766;2023-03-25T07:12:46;99922.13;;;8.23;93.52
62051;BME280;48008;51.204;6.766;2023-03-25T07:15:13;99914.41;;;8.38;93.78
62051;BME280;48008;51.204;6.766;2023-03-25T07:17:42;99910.19;;;8.53;91.72
62051;BME280;48008;51.204;6.766;2023-03-25T07:20:10;99918.66;;;8.65;90.39
62051;BME280;48008;51.204;6.766;2023-03-25T07:22:38;99916.66;;;8.67;88.93
62051;BME280;48008;51.204;6.766;2023-03-25T07:25:05;99926.63;;;8.73;89.32
62051;BME280;48008;51.204;6.766;2023-03-25T07:27:32;99903.13;;;8.70;86.61
62051;BME280;48008;51.204;6.766;2023-03-25T07:30:07;99922.16;;;8.74;85.30
62051;BME280;48008;51.204;6.766;2023-03-25T07:32:34;99925.28;;;8.77;85.18
62051;BME280;48008;51.204;6.766;2023-03-25T07:35:02;99917.31;;;8.69;84.86
62051;BME280;48008;51.204;6.766;2023-03-25T07:37:29;99931.41;;;8.78;84.71
62051;BME280;48008;51.204;6.766;2023-03-25T07:39:56;99931.25;;;8.79;84.92
62051;BME280;48008;51.204;6.766;2023-03-25T07:42:24;99931.41;;;8.78;84.58
62051;BME280;48008;51.204;6.766;2023-03-25T07:45:00;99934.03;;;8.78;85.03
62051;BME280;48008;51.204;6.766;2023-03-25T07:47:29;99929.09;;;8.83;84.74
62051;BME280;48008;51.204;6.766;2023-03-25T07:49:56;99925.78;;;8.81;83.74
62051;BME280;48008;51.204;6.766;2023-03-25T07:52:22;99928.44;;;8.81;84.70
62051;BME280;48008;51.204;6.766;2023-03-25T07:54:49;99929.25;;;8.73;84.00
62051;BME280;48008;51.204;6.766;2023-03-25T07:57:18;99930.06;;;8.74;83.97
62051;BME280;48008;51.204;6.766;2023-03-25T07:59:47;99927.44;;;8.74;83.81
62051;BME280;48008;51.204;6.766;2023-03-25T08:02:14;99937.00;;;8.67;83.11
62051;BME280;48008;51.204;6.766;2023-03-25T08:04:42;99931.06;;;8.73;84.97
62051;BME280;48008;51.204;6.766;2023-03-25T08:07:09;99940.97;;;8.71;83.75
62051;BME280;48008;51.204;6.766;2023-03-25T08:09:36;99944.81;;;8.84;83.33
62051;BME280;48008;51.204;6.766;2023-03-25T08:12:02;99941.34;;;8.92;82.74
62051;BME280;48008;51.204;6.766;2023-03-25T08:14:29;99940.91;;;9.13;81.99
62051;BME280;48008;51.204;6.766;2023-03-25T08:16:56;99949.16;;;9.35;81.87
62051;BME280;48008;51.204;6.766;2023-03-25T08:19:22;99948.84;;;9.30;81.35
62051;BME280;48008;51.204;6.766;2023-03-25T08:21:49;99944.53;;;9.45;80.31
62051;BME280;48008;51.204;6.766;2023-03-25T08:24:16;99958.91;;;9.34;80.40
62051;BME280;48008;51.204;6.766;2023-03-25T08:26:43;99956.78;;;9.38;79.56
62051;BME280;48008;51.204;6.766;2023-03-25T08:29:10;99963.06;;;9.45;79.99
62051;BME280;48008;51.204;6.766;2023-03-25T08:31:37;99965.84;;;9.60;78.91
62051;BME280;48008;51.204;6.766;2023-03-25T08:34:04;99970.19;;;9.61;78.20
62051;BME280;48008;51.204;6.766;2023-03-25T08:36:31;99973.50;;;9.47;77.93
62051;BME280;48008;51.204;6.766;2023-03-25T08:38:58;99969.53;;;9.59;78.14
62051;BME280;48008;51.204;6.766;2023-03-25T08:41:25;99971.84;;;9.54;79.19
62051;BME280;48008;51.204;6.766;2023-03-25T08:43:52;99951.47;;;9.54;80.25
62051;BME280;48008;51.204;6.766;2023-03-25T08:46:18;99968.34;;;9.45;77.89
62051;BME280;48008;51.204;6.766;2023-03-25T08:48:45;99972.16;;;9.51;78.13
62051;BME280;48008;51.204;6.766;2023-03-25T08:51:14;99975.47;;;9.53;77.52
62051;BME280;48008;51.204;6.766;2023-03-25T08:53:41;99965.53;;;9.38;77.35
62051;BME280;48008;51.204;6.766;2023-03-25T08:56:09;99972.00;;;9.60;77.56
62051;BME280;48008;51.204;6.766;2023-03-25T08:58:36;99962.53;;;9.74;76.81
62051;BME280;48008;51.204;6.766;2023-03-25T09:01:04;99977.09;;;9.78;76.03
62051;BME280;48008;51.204;6.766;2023-03-25T09:03:32;99974.25;;;9.96;75.96
62051;BME280;48008;51.204;6.766;2023-03-25T09:06:04;99968.78;;;9.98;75.20
62051;BME280;48008;51.204;6.766;2023-03-25T09:08:32;99966.78;;;10.00;74.68
62051;BME280;48008;51.204;6.766;2023-03-25T09:10:59;99968.16;;;9.79;75.32
62051;BME280;48008;51.204;6.766;2023-03-25T09:13:26;99986.38;;;9.74;75.80
62051;BME280;48008;51.204;6.766;2023-03-25T09:15:53;99960.22;;;9.79;75.96
62051;BME280;48008;51.204;6.766;2023-03-25T09:18:20;99977.28;;;9.77;74.88
62051;BME280;48008;51.204;6.766;2023-03-25T09:20:46;99971.81;;;9.70;76.27
62051;BME280;48008;51.204;6.766;2023-03-25T09:23:14;99966.00;;;9.83;75.87
62051;BME280;48008;51.204;6.766;2023-03-25T09:25:41;99972.78;;;9.94;75.70
62051;BME280;48008;51.204;6.766;2023-03-25T09:28:08;99962.31;;;10.09;74.58
62051;BME280;48008;51.204;6.766;2023-03-25T09:30:37;99964.16;;;10.08;73.48
62051;BME280;48008;51.204;6.766;2023-03-25T09:33:04;99968.41;;;10.17;73.32
62051;BME280;48008;51.204;6.766;2023-03-25T09:35:32;99952.03;;;10.14;72.41
62051;BME280;48008;51.204;6.766;2023-03-25T09:37:59;99969.09;;;10.11;72.34
62051;BME280;48008;51.204;6.766;2023-03-25T09:40:27;99974.91;;;10.07;73.05
62051;BME280;48008;51.204;6.766;2023-03-25T09:43:03;99974.72;;;10.16;72.21
62051;BME280;48008;51.204;6.766;2023-03-25T09:45:39;99967.56;;;10.25;72.23
62051;BME280;48008;51.204;6.766;2023-03-25T09:48:29;99982.09;;;10.46;71.13
62051;BME280;48008;51.204;6.766;2023-03-25T09:51:03;99976.34;;;10.26;72.04
62051;BME280;48008;51.204;6.766;2023-03-25T09:53:38;100017.59;;;10.28;71.50
62051;BME280;48008;51.204;6.766;2023-03-25T09:56:13;99977.19;;;10.18;71.21
62051;BME280;48008;51.204;6.766;2023-03-25T09:58:47;99978.84;;;10.19;71.95
62051;BME280;48008;51.204;6.766;2023-03-25T10:01:33;99976.00;;;10.29;72.34
62051;BME280;48008;51.204;6.766;2023-03-25T10:04:30;99979.03;;;10.17;71.22
62051;BME280;48008;51.204;6.766;2023-03-25T10:07:29;99975.72;;;10.15;71.65
62051;BME280;48008;51.204;6.766;2023-03-25T10:10:51;99995.41;;;10.21;72.71
62051;BME280;48008;51.204;6.766;2023-03-25T10:13:19;100044.44;;;10.25;72.69
62051;BME280;48008;51.204;6.766;2023-03-25T10:15:57;99991.41;;;10.25;71.12
62051;BME280;48008;51.204;6.766;2023-03-25T10:18:51;99982.09;;;10.46;71.79
62051;BME280;48008;51.204;6.766;2023-03-25T10:24:21;99988.34;;;10.92;69.49
62051;BME280;48008;51.204;6.766;2023-03-25T10:27:01;99990.09;;;11.31;67.26
62051;BME280;48008;51.204;6.766;2023-03-25T10:29:38;99991.72;;;11.09;68.41
62051;BME280;48008;51.204;6.766;2023-03-25T10:32:15;99995.59;;;10.67;69.56
62051;BME280;48008;51.204;6.766;2023-03-25T10:34:48;100012.88;;;10.55;71.20
62051;BME280;48008;51.204;6.766;2023-03-25T10:37:28;100005.34;;;10.35;71.58
62051;BME280;48008;51.204;6.766;2023-03-25T10:40:08;100000.38;;;10.41;71.34
62051;BME280;48008;51.204;6.766;2023-03-25T10:42:44;99996.75;;;10.33;71.13
62051;BME280;48008;51.204;6.766;2023-03-25T10:45:14;100004.81;;;10.48;70.45
62051;BME280;48008;51.204;6.766;2023-03-25T10:47:45;100006.66;;;10.40;70.78
62051;BME280;48008;51.204;6.766;2023-03-25T10:50:15;100006.38;;;10.66;70.68
62051;BME280;48008;51.204;6.766;2023-03-25T10:52:43;100001.59;;;11.01;69.99
62051;BME280;48008;51.204;6.766;2023-03-25T10:55:22;99996.00;;;11.42;68.93
62051;BME280;48008;51.204;6.766;2023-03-25T10:57:50;99995.81;;;11.20;68.66
62051;BME280;48008;51.204;6.766;2023-03-25T11:00:17;99991.28;;;11.29;70.90
62051;BME280;48008;51.204;6.766;2023-03-25T11:02:46;99981.28;;;11.31;70.49
62051;BME280;48008;51.204;6.766;2023-03-25T11:05:17;99997.81;;;11.41;68.43
62051;BME280;48008;51.204;6.766;2023-03-25T11:07:52;99988.66;;;11.67;69.46
62051;BME280;48008;51.204;6.766;2023-03-25T11:12:56;99988.94;;;11.95;65.44
62051;BME280;48008;51.204;6.766;2023-03-25T11:15:32;99991.03;;;11.77;65.19
62051;BME280;48008;51.204;6.766;2023-03-25T11:18:03;99985.84;;;11.45;66.10
62051;BME280;48008;51.204;6.766;2023-03-25T11:20:36;99978.75;;;11.14;67.53
62051;BME280;48008;51.204;6.766;2023-03-25T11:23:10;99993.88;;;11.14;69.00
62051;BME280;48008;51.204;6.766;2023-03-25T11:25:42;99978.81;;;11.29;68.49
62051;BME280;48008;51.204;6.766;2023-03-25T11:28:15;99989.75;;;11.11;67.85
62051;BME280;48008;51.204;6.766;2023-03-25T11:31:05;99987.44;;;11.08;69.18
62051;BME280;48008;51.204;6.766;2023-03-25T11:33:32;99984.72;;;11.17;67.25
62051;BME280;48008;51.204;6.766;2023-03-25T11:36:10;99994.00;;;11.59;66.13
62051;BME280;48008;51.204;6.766;2023-03-25T11:38:38;99995.16;;;12.47;62.91
62051;BME280;48008;51.204;6.766;2023-03-25T11:41:06;100012.88;;;12.40;62.95
62051;BME280;48008;51.204;6.766;2023-03-25T11:43:36;100009.19;;;12.11;64.35
62051;BME280;48008;51.204;6.766;2023-03-25T11:46:19;100021.97;;;12.31;64.80
62051;BME280;48008;51.204;6.766;2023-03-25T11:48:48;100011.03;;;12.40;64.58
62051;BME280;48008;51.204;6.766;2023-03-25T11:51:22;100013.81;;;12.17;64.86
62051;BME280;48008;51.204;6.766;2023-03-25T11:54:00;100019.53;;;11.68;66.20
62051;BME280;48008;51.204;6.766;2023-03-25T11:56:33;100021.75;;;11.33;69.00
62051;BME280;48008;51.204;6.766;2023-03-25T11:59:01;100036.28;;;10.91;73.63
62051;BME280;48008;51.204;6.766;2023-03-25T12:01:39;100036.25;;;10.60;77.63
62051;BME280;48008;51.204;6.766;2023-03-25T12:04:17;100044.13;;;10.04;80.53
62051;BME280;48008;51.204;6.766;2023-03-25T12:07:05;100048.59;;;9.95;84.04
62051;BME280;48008;51.204;6.766;2023-03-25T12:09:34;100057.56;;;9.86;84.24
62051;BME280;48008;51.204;6.766;2023-03-25T12:12:15;100053.94;;;9.87;86.17
62051;BME280;48008;51.204;6.766;2023-03-25T12:15:11;100049.59;;;9.86;86.92
62051;BME280;48008;51.204;6.766;2023-03-25T12:17:59;100036.31;;;10.35;87.31
62051;BME280;48008;51.204;6.766;2023-03-25T12:20:43;100031.88;;;10.11;88.48
62051;BME280;48008;51.204;6.766;2023-03-25T12:26:12;100019.28;;;11.55;84.60
62051;BME280;48008;51.204;6.766;2023-03-25T12:29:14;100038.34;;;12.94;76.20
62051;BME280;48008;51.204;6.766;2023-03-25T12:32:02;100014.06;;;13.40;70.18
62051;BME280;48008;51.204;6.766;2023-03-25T12:34:43;100004.09;;;11.86;77.78
62051;BME280;48008;51.204;6.766;2023-03-25T12:43:56;100001.97;;;14.50;65.84
62051;BME280;48008;51.204;6.766;2023-03-25T12:49:44;99992.44;;;13.99;66.82
62051;BME280;48008;51.204;6.766;2023-03-25T12:55:24;99995.66;;;11.83;75.08
62051;BME280;48008;51.204;6.766;2023-03-25T13:03:55;100007.50;;;10.24;86.14
62051;BME280;48008;51.204;6.766;2023-03-25T13:06:46;100022.91;;;9.21;86.23
62051;BME280;48008;51.204;6.766;2023-03-25T13:09:23;100004.47;;;8.79;91.36
62051;BME280;48008;51.204;6.766;2023-03-25T13:11:59;100005.97;;;8.81;91.15
62051;BME280;48008;51.204;6.766;2023-03-25T13:14:55;100024.66;;;8.88;91.17
62051;BME280;48008;51.204;6.766;2023-03-25T13:17:28;100033.56;;;8.79;93.27
62051;BME280;48008;51.204;6.766;2023-03-25T13:19:59;100046.06;;;8.69;92.42
62051;BME280;48008;51.204;6.766;2023-03-25T13:22:33;100073.50;;;8.68;93.83
62051;BME280;48008;51.204;6.766;2023-03-25T13:25:04;100054.97;;;8.33;97.99
62051;BME280;48008;51.204;6.766;2023-03-25T13:27:34;100079.47;;;8.17;99.32
62051;BME280;48008;51.204;6.766;2023-03-25T13:30:13;100072.25;;;8.01;100.00
62051;BME280;48008;51.204;6.766;2023-03-25T13:32:45;100066.28;;;7.99;100.00
62051;BME280;48008;51.204;6.766;2023-03-25T13:35:21;100074.44;;;8.06;100.00
62051;BME280;48008;51.204;6.766;2023-03-25T13:37:53;100060.88;;;8.53;100.00
62051;BME280;48008;51.204;6.766;2023-03-25T13:40:29;100056.81;;;8.67;100.00
62051;BME280;48008;51.204;6.766;2023-03-25T13:43:20;100058.75;;;8.57;100.00
62051;BME280;48008;51.204;6.766;2023-03-25T13:46:02;100036.63;;;10.48;97.07
62051;BME280;48008;51.204;6.766;2023-03-25T13:48:54;100040.44;;;10.29;93.60
62051;BME280;48008;51.204;6.766;2023-03-25T13:51:23;100046.91;;;11.45;85.57
62051;BME280;48008;51.204;6.766;2023-03-25T13:53:54;100032.72;;;13.61;76.02
62051;BME280;48008;51.204;6.766;2023-03-25T13:59:17;100029.78;;;14.34;69.96
62051;BME280;48008;51.204;6.766;2023-03-25T14:11:23;100033.34;;;13.42;72.72
62051;BME280;48008;51.204;6.766;2023-03-25T14:13:56;100047.38;;;12.63;78.34
62051;BME280;48008;51.204;6.766;2023-03-25T14:16:29;100029.50;;;11.20;81.04
62051;BME280;48008;51.204;6.766;2023-03-25T14:19:03;100037.94;;;11.23;83.63
62051;BME280;48008;51.204;6.766;2023-03-25T14:21:40;100034.97;;;10.87;83.68
62051;BME280;48008;51.204;6.766;2023-03-25T14:24:13;100031.50;;;11.18;82.62
62051;BME280;48008;51.204;6.766;2023-03-25T14:26:51;100036.31;;;11.68;81.29